This is the latest recevied weather packets stored in our database for station/object K5GHS-1. If no packets are shown the sender has not sent any weather packets the latest 10 day(s).
| Time | Temp. | Humidity | Pressure | Rain* | Wind** | Luminosity | Snow |
|---|---|---|---|---|---|---|---|
| 1777822548 | 24.44° C | 45% | 1019.1 hPa | 0 mm | - | 744 W/m² | - |
| 1777821943 | 23.89° C | 45% | 1019.6 hPa | 0 mm | - | 677 W/m² | - |
| 1777821640 | 23.33° C | 46% | 1019 hPa | 0 mm | - | 621 W/m² | - |
| 1777819822 | 22.78° C | 47% | 1019.2 hPa | 0 mm | - | 436 W/m² | - |
| 1777818610 | 22.22° C | 49% | 1019.3 hPa | 0 mm | - | 329 W/m² | - |
| 1777814671 | 18.89° C | 60% | 1019.1 hPa | 0 mm | - | 125 W/m² | - |
| 1777811339 | 15° C | 73% | 1018.8 hPa | 0 mm | - | 20 W/m² | - |
| 1777810126 | 14.44° C | 74% | 1018.5 hPa | 0 mm | - | 11 W/m² | - |
| 1777808310 | 13.89° C | 73% | 1018.3 hPa | 0 mm | - | 0 W/m² | - |
| 1777807104 | 14.44° C | 73% | 1018.2 hPa | 0 mm | - | 0 W/m² | - |
| 1777806497 | 13.89° C | 73% | 1018.1 hPa | 0 mm | - | 0 W/m² | - |
| 1777805588 | 13.89° C | 73% | 1018.1 hPa | 0 mm | - | 0 W/m² | - |
| 1777805286 | 13.89° C | 74% | 1018.3 hPa | 0 mm | - | 0 W/m² | - |
| 1777804680 | 13.33° C | 74% | 1018.2 hPa | 0 mm | - | 0 W/m² | - |
| 1777803771 | 13.89° C | 73% | 1018.3 hPa | 0 mm | - | 0 W/m² | - |
| 1777803165 | 13.89° C | 72% | 1017.8 hPa | 0 mm | - | 0 W/m² | - |
| 1777802862 | 13.89° C | 72% | 1018.2 hPa | 0 mm | - | 0 W/m² | - |
| 1777802257 | 13.89° C | 71% | 1018.1 hPa | 0 mm | - | 0 W/m² | - |
| 1777801652 | 13.89° C | 71% | 1018.4 hPa | 0 mm | - | 0 W/m² | - |
| 1777801046 | 14.44° C | 70% | 1017.9 hPa | 0 mm | - | 0 W/m² | - |
| 1777800743 | 14.44° C | 70% | 1017.9 hPa | 0 mm | - | 0 W/m² | - |
| 1777800438 | 14.44° C | 69% | 1017.8 hPa | 0 mm | - | 0 W/m² | - |
| 1777800136 | 14.44° C | 69% | 1018.1 hPa | 0 mm | - | 0 W/m² | - |
| 1777799831 | 15° C | 69% | 1018.2 hPa | 0 mm | - | 0 W/m² | - |
| 1777799529 | 15° C | 68% | 1017.9 hPa | 0 mm | - | 0 W/m² | - |
* Rain latest hour (hover to see other rain measurements)
** Current wind speed in m/s (hover to see current wind gust speed)